sensor_id;sensor_type;location;lat;lon;timestamp;temperature;humidity
29479;DHT22;16437;41.836;23.480;2022-10-16T00:02:12;17.20;49.00
29479;DHT22;16437;41.836;23.480;2022-10-16T00:07:38;17.20;49.10
29479;DHT22;16437;41.836;23.480;2022-10-16T00:13:06;17.10;49.00
29479;DHT22;16437;41.836;23.480;2022-10-16T00:18:33;17.20;49.00
29479;DHT22;16437;41.836;23.480;2022-10-16T00:24:05;17.10;49.00
29479;DHT22;16437;41.836;23.480;2022-10-16T00:29:33;17.10;48.90
29479;DHT22;16437;41.836;23.480;2022-10-16T00:34:59;17.10;48.90
29479;DHT22;16437;41.836;23.480;2022-10-16T00:40:25;17.10;48.80
29479;DHT22;16437;41.836;23.480;2022-10-16T00:45:53;17.10;48.80
29479;DHT22;16437;41.836;23.480;2022-10-16T00:51:22;17.00;48.80
29479;DHT22;16437;41.836;23.480;2022-10-16T00:56:50;17.00;48.80
29479;DHT22;16437;41.836;23.480;2022-10-16T01:02:16;17.10;48.80
29479;DHT22;16437;41.836;23.480;2022-10-16T01:08:13;17.00;48.80
29479;DHT22;16437;41.836;23.480;2022-10-16T01:13:42;17.00;48.80
29479;DHT22;16437;41.836;23.480;2022-10-16T01:19:14;17.00;48.90
29479;DHT22;16437;41.836;23.480;2022-10-16T01:24:48;17.00;49.00
29479;DHT22;16437;41.836;23.480;2022-10-16T01:30:12;17.00;49.00
29479;DHT22;16437;41.836;23.480;2022-10-16T01:35:41;17.00;49.00
29479;DHT22;16437;41.836;23.480;2022-10-16T01:41:15;17.00;49.10
29479;DHT22;16437;41.836;23.480;2022-10-16T01:46:43;17.00;49.10
29479;DHT22;16437;41.836;23.480;2022-10-16T01:52:16;17.00;49.10
29479;DHT22;16437;41.836;23.480;2022-10-16T01:57:45;17.00;49.10
29479;DHT22;16437;41.836;23.480;2022-10-16T02:03:14;16.90;49.00
29479;DHT22;16437;41.836;23.480;2022-10-16T02:08:42;16.90;49.00
29479;DHT22;16437;41.836;23.480;2022-10-16T02:14:09;16.90;49.00
29479;DHT22;16437;41.836;23.480;2022-10-16T02:19:36;16.90;49.00
29479;DHT22;16437;41.836;23.480;2022-10-16T02:25:12;16.90;49.00
29479;DHT22;16437;41.836;23.480;2022-10-16T02:30:44;16.90;48.90
29479;DHT22;16437;41.836;23.480;2022-10-16T02:36:08;16.80;49.00
29479;DHT22;16437;41.836;23.480;2022-10-16T02:41:35;16.90;49.00
29479;DHT22;16437;41.836;23.480;2022-10-16T02:47:02;16.80;49.00
29479;DHT22;16437;41.836;23.480;2022-10-16T02:52:29;16.80;49.00
29479;DHT22;16437;41.836;23.480;2022-10-16T02:57:55;16.80;48.90
29479;DHT22;16437;41.836;23.480;2022-10-16T03:03:22;16.80;48.90
29479;DHT22;16437;41.836;23.480;2022-10-16T03:08:48;16.80;48.90
29479;DHT22;16437;41.836;23.480;2022-10-16T03:14:15;16.80;48.80
29479;DHT22;16437;41.836;23.480;2022-10-16T03:19:41;16.80;48.70
29479;DHT22;16437;41.836;23.480;2022-10-16T03:25:08;16.70;48.60
29479;DHT22;16437;41.836;23.480;2022-10-16T03:30:35;16.70;48.40
29479;DHT22;16437;41.836;23.480;2022-10-16T03:36:02;16.70;48.30
29479;DHT22;16437;41.836;23.480;2022-10-16T03:41:28;16.70;48.30
29479;DHT22;16437;41.836;23.480;2022-10-16T03:46:55;16.70;48.30
29479;DHT22;16437;41.836;23.480;2022-10-16T03:52:21;16.60;48.30
29479;DHT22;16437;41.836;23.480;2022-10-16T03:57:47;16.70;48.40
29479;DHT22;16437;41.836;23.480;2022-10-16T04:03:14;16.70;48.50
29479;DHT22;16437;41.836;23.480;2022-10-16T04:08:42;16.60;48.60
29479;DHT22;16437;41.836;23.480;2022-10-16T04:14:09;16.60;48.60
29479;DHT22;16437;41.836;23.480;2022-10-16T04:19:35;16.60;48.60
29479;DHT22;16437;41.836;23.480;2022-10-16T04:25:02;16.60;48.60
29479;DHT22;16437;41.836;23.480;2022-10-16T04:30:29;16.60;48.60
29479;DHT22;16437;41.836;23.480;2022-10-16T04:35:59;16.60;48.50
29479;DHT22;16437;41.836;23.480;2022-10-16T04:41:25;16.60;48.50
29479;DHT22;16437;41.836;23.480;2022-10-16T04:46:52;16.60;48.50
29479;DHT22;16437;41.836;23.480;2022-10-16T04:52:18;16.60;48.50
29479;DHT22;16437;41.836;23.480;2022-10-16T04:57:46;16.60;48.50
29479;DHT22;16437;41.836;23.480;2022-10-16T05:03:13;16.50;48.50
29479;DHT22;16437;41.836;23.480;2022-10-16T05:08:39;16.50;48.50
29479;DHT22;16437;41.836;23.480;2022-10-16T05:14:06;16.50;48.50
29479;DHT22;16437;41.836;23.480;2022-10-16T05:19:32;16.50;48.50
29479;DHT22;16437;41.836;23.480;2022-10-16T05:24:58;16.50;48.50
29479;DHT22;16437;41.836;23.480;2022-10-16T05:30:25;16.50;48.50
29479;DHT22;16437;41.836;23.480;2022-10-16T05:35:52;16.50;48.50
29479;DHT22;16437;41.836;23.480;2022-10-16T05:41:19;16.50;48.60
29479;DHT22;16437;41.836;23.480;2022-10-16T05:46:47;16.50;48.50
29479;DHT22;16437;41.836;23.480;2022-10-16T05:52:14;16.50;48.60
29479;DHT22;16437;41.836;23.480;2022-10-16T05:57:41;16.60;48.60
29479;DHT22;16437;41.836;23.480;2022-10-16T06:03:07;16.60;48.60
29479;DHT22;16437;41.836;23.480;2022-10-16T06:08:34;16.60;48.70
29479;DHT22;16437;41.836;23.480;2022-10-16T06:14:01;16.60;48.70
29479;DHT22;16437;41.836;23.480;2022-10-16T06:19:29;16.60;48.70
29479;DHT22;16437;41.836;23.480;2022-10-16T06:24:56;16.60;48.80
29479;DHT22;16437;41.836;23.480;2022-10-16T06:30:23;16.60;48.80
29479;DHT22;16437;41.836;23.480;2022-10-16T06:35:49;16.60;48.90
29479;DHT22;16437;41.836;23.480;2022-10-16T06:41:18;16.60;48.90
29479;DHT22;16437;41.836;23.480;2022-10-16T06:46:45;16.60;49.00
29479;DHT22;16437;41.836;23.480;2022-10-16T06:52:12;16.60;49.00
29479;DHT22;16437;41.836;23.480;2022-10-16T06:57:39;16.60;48.90
29479;DHT22;16437;41.836;23.480;2022-10-16T07:03:05;16.60;48.90
29479;DHT22;16437;41.836;23.480;2022-10-16T07:08:37;16.60;48.90
29479;DHT22;16437;41.836;23.480;2022-10-16T07:14:03;16.60;48.90
29479;DHT22;16437;41.836;23.480;2022-10-16T07:19:30;16.60;48.90
29479;DHT22;16437;41.836;23.480;2022-10-16T07:24:56;16.60;49.00
29479;DHT22;16437;41.836;23.480;2022-10-16T07:30:23;16.60;49.00
29479;DHT22;16437;41.836;23.480;2022-10-16T07:35:51;16.60;49.10
29479;DHT22;16437;41.836;23.480;2022-10-16T07:41:19;16.60;49.20
29479;DHT22;16437;41.836;23.480;2022-10-16T07:46:46;16.60;49.20
29479;DHT22;16437;41.836;23.480;2022-10-16T07:52:13;16.70;49.30
29479;DHT22;16437;41.836;23.480;2022-10-16T07:57:39;16.70;49.30
29479;DHT22;16437;41.836;23.480;2022-10-16T08:03:06;16.70;49.40
29479;DHT22;16437;41.836;23.480;2022-10-16T08:08:32;16.70;49.50
29479;DHT22;16437;41.836;23.480;2022-10-16T08:13:59;16.70;49.40
29479;DHT22;16437;41.836;23.480;2022-10-16T08:19:25;16.70;49.40
29479;DHT22;16437;41.836;23.480;2022-10-16T08:24:52;16.70;49.40
29479;DHT22;16437;41.836;23.480;2022-10-16T08:30:20;16.70;49.50
29479;DHT22;16437;41.836;23.480;2022-10-16T08:35:51;16.70;49.50
29479;DHT22;16437;41.836;23.480;2022-10-16T08:41:50;16.70;49.50
29479;DHT22;16437;41.836;23.480;2022-10-16T08:47:41;16.70;49.60
29479;DHT22;16437;41.836;23.480;2022-10-16T08:52:55;16.70;49.60
29479;DHT22;16437;41.836;23.480;2022-10-16T08:58:27;16.80;49.70
29479;DHT22;16437;41.836;23.480;2022-10-16T09:10:13;16.90;49.60
29479;DHT22;16437;41.836;23.480;2022-10-16T09:16:08;16.80;49.50
29479;DHT22;16437;41.836;23.480;2022-10-16T09:21:39;16.80;49.50
29479;DHT22;16437;41.836;23.480;2022-10-16T09:27:01;16.90;49.50
29479;DHT22;16437;41.836;23.480;2022-10-16T09:32:28;17.00;49.40
29479;DHT22;16437;41.836;23.480;2022-10-16T09:37:55;17.10;49.30
29479;DHT22;16437;41.836;23.480;2022-10-16T09:54:29;17.20;49.20
29479;DHT22;16437;41.836;23.480;2022-10-16T09:59:57;17.10;49.10
29479;DHT22;16437;41.836;23.480;2022-10-16T10:05:26;17.20;49.00
29479;DHT22;16437;41.836;23.480;2022-10-16T10:10:53;17.10;49.00
29479;DHT22;16437;41.836;23.480;2022-10-16T10:16:26;17.10;49.00
29479;DHT22;16437;41.836;23.480;2022-10-16T10:21:52;17.30;48.90
29479;DHT22;16437;41.836;23.480;2022-10-16T10:27:19;17.30;48.80
29479;DHT22;16437;41.836;23.480;2022-10-16T10:33:09;17.40;48.70
29479;DHT22;16437;41.836;23.480;2022-10-16T10:38:50;17.50;48.60
29479;DHT22;16437;41.836;23.480;2022-10-16T10:44:50;17.50;48.50
29479;DHT22;16437;41.836;23.480;2022-10-16T11:01:54;17.80;48.30
29479;DHT22;16437;41.836;23.480;2022-10-16T11:07:39;17.80;48.30
29479;DHT22;16437;41.836;23.480;2022-10-16T11:12:58;17.90;48.30
29479;DHT22;16437;41.836;23.480;2022-10-16T11:18:30;18.00;48.30
29479;DHT22;16437;41.836;23.480;2022-10-16T11:24:05;18.10;48.30
29479;DHT22;16437;41.836;23.480;2022-10-16T11:29:32;18.20;48.30
29479;DHT22;16437;41.836;23.480;2022-10-16T11:35:47;18.30;48.20
29479;DHT22;16437;41.836;23.480;2022-10-16T11:40:33;18.40;48.20
29479;DHT22;16437;41.836;23.480;2022-10-16T11:46:16;18.50;48.10
29479;DHT22;16437;41.836;23.480;2022-10-16T11:51:42;18.60;48.00
29479;DHT22;16437;41.836;23.480;2022-10-16T11:57:29;18.70;47.90
29479;DHT22;16437;41.836;23.480;2022-10-16T12:03:18;18.80;47.80
29479;DHT22;16437;41.836;23.480;2022-10-16T12:08:43;18.90;47.80
29479;DHT22;16437;41.836;23.480;2022-10-16T12:19:42;19.10;47.60
29479;DHT22;16437;41.836;23.480;2022-10-16T12:25:27;19.20;47.60
29479;DHT22;16437;41.836;23.480;2022-10-16T12:36:35;19.40;47.40
29479;DHT22;16437;41.836;23.480;2022-10-16T12:47:55;19.60;47.20
29479;DHT22;16437;41.836;23.480;2022-10-16T12:53:26;19.70;47.20
29479;DHT22;16437;41.836;23.480;2022-10-16T12:58:56;19.70;47.10
29479;DHT22;16437;41.836;23.480;2022-10-16T13:04:35;19.80;47.00
29479;DHT22;16437;41.836;23.480;2022-10-16T13:10:06;19.90;47.00
29479;DHT22;16437;41.836;23.480;2022-10-16T13:15:40;19.90;46.90
29479;DHT22;16437;41.836;23.480;2022-10-16T13:27:13;20.00;46.70
29479;DHT22;16437;41.836;23.480;2022-10-16T13:32:37;20.00;46.60
29479;DHT22;16437;41.836;23.480;2022-10-16T13:38:16;20.10;46.70
29479;DHT22;16437;41.836;23.480;2022-10-16T13:43:53;20.20;46.70
29479;DHT22;16437;41.836;23.480;2022-10-16T13:49:21;20.20;46.70
29479;DHT22;16437;41.836;23.480;2022-10-16T13:54:48;20.20;46.60
29479;DHT22;16437;41.836;23.480;2022-10-16T14:00:24;20.20;46.70
29479;DHT22;16437;41.836;23.480;2022-10-16T14:05:52;20.20;46.70
29479;DHT22;16437;41.836;23.480;2022-10-16T14:11:24;20.30;46.60
29479;DHT22;16437;41.836;23.480;2022-10-16T14:16:51;20.20;46.60
29479;DHT22;16437;41.836;23.480;2022-10-16T14:28:13;20.10;46.80
29479;DHT22;16437;41.836;23.480;2022-10-16T14:33:33;20.00;46.90
29479;DHT22;16437;41.836;23.480;2022-10-16T14:39:02;19.90;47.10
29479;DHT22;16437;41.836;23.480;2022-10-16T14:44:31;19.80;47.40
29479;DHT22;16437;41.836;23.480;2022-10-16T14:49:58;19.70;47.60
29479;DHT22;16437;41.836;23.480;2022-10-16T14:55:25;19.60;47.80
29479;DHT22;16437;41.836;23.480;2022-10-16T15:00:52;19.50;48.00
29479;DHT22;16437;41.836;23.480;2022-10-16T15:06:18;19.50;48.20
29479;DHT22;16437;41.836;23.480;2022-10-16T15:11:45;19.40;48.40
29479;DHT22;16437;41.836;23.480;2022-10-16T15:17:12;19.30;48.50
29479;DHT22;16437;41.836;23.480;2022-10-16T15:22:39;19.20;48.70
29479;DHT22;16437;41.836;23.480;2022-10-16T15:28:06;19.20;48.80
29479;DHT22;16437;41.836;23.480;2022-10-16T15:33:32;19.10;48.80
29479;DHT22;16437;41.836;23.480;2022-10-16T15:39:00;19.00;48.90
29479;DHT22;16437;41.836;23.480;2022-10-16T15:44:27;19.00;49.00
29479;DHT22;16437;41.836;23.480;2022-10-16T15:49:55;18.90;49.00
29479;DHT22;16437;41.836;23.480;2022-10-16T15:55:21;18.90;49.10
29479;DHT22;16437;41.836;23.480;2022-10-16T16:00:56;18.90;49.10
29479;DHT22;16437;41.836;23.480;2022-10-16T16:06:22;18.90;49.10
29479;DHT22;16437;41.836;23.480;2022-10-16T16:11:49;18.80;49.10
29479;DHT22;16437;41.836;23.480;2022-10-16T16:17:17;18.80;49.20
29479;DHT22;16437;41.836;23.480;2022-10-16T16:22:44;18.70;49.10
29479;DHT22;16437;41.836;23.480;2022-10-16T16:28:10;18.70;49.10
29479;DHT22;16437;41.836;23.480;2022-10-16T16:33:38;18.70;49.00
29479;DHT22;16437;41.836;23.480;2022-10-16T16:39:06;18.70;49.00
29479;DHT22;16437;41.836;23.480;2022-10-16T16:44:33;18.60;48.90
29479;DHT22;16437;41.836;23.480;2022-10-16T16:50:01;18.60;48.80
29479;DHT22;16437;41.836;23.480;2022-10-16T16:55:29;18.60;48.70
29479;DHT22;16437;41.836;23.480;2022-10-16T17:00:55;18.60;48.60
29479;DHT22;16437;41.836;23.480;2022-10-16T17:06:28;18.60;48.60
29479;DHT22;16437;41.836;23.480;2022-10-16T17:11:54;18.50;48.50
29479;DHT22;16437;41.836;23.480;2022-10-16T17:17:21;18.50;48.40
29479;DHT22;16437;41.836;23.480;2022-10-16T17:22:47;18.40;48.20
29479;DHT22;16437;41.836;23.480;2022-10-16T17:28:14;18.40;48.10
29479;DHT22;16437;41.836;23.480;2022-10-16T17:33:41;18.40;47.90
29479;DHT22;16437;41.836;23.480;2022-10-16T17:39:09;18.30;47.50
29479;DHT22;16437;41.836;23.480;2022-10-16T17:44:36;18.30;47.20
29479;DHT22;16437;41.836;23.480;2022-10-16T17:50:03;18.30;47.00
29479;DHT22;16437;41.836;23.480;2022-10-16T17:55:30;18.30;46.90
29479;DHT22;16437;41.836;23.480;2022-10-16T18:00:57;18.20;46.70
29479;DHT22;16437;41.836;23.480;2022-10-16T18:06:24;18.10;46.60
29479;DHT22;16437;41.836;23.480;2022-10-16T18:11:51;18.10;46.60
29479;DHT22;16437;41.836;23.480;2022-10-16T18:17:19;18.10;46.60
29479;DHT22;16437;41.836;23.480;2022-10-16T18:22:45;18.10;46.50
29479;DHT22;16437;41.836;23.480;2022-10-16T18:28:12;18.00;46.40
29479;DHT22;16437;41.836;23.480;2022-10-16T18:33:39;18.00;46.40
29479;DHT22;16437;41.836;23.480;2022-10-16T18:39:07;18.00;46.40
29479;DHT22;16437;41.836;23.480;2022-10-16T18:44:35;17.90;46.40
29479;DHT22;16437;41.836;23.480;2022-10-16T18:50:01;17.90;46.40
29479;DHT22;16437;41.836;23.480;2022-10-16T18:55:28;17.90;46.40
29479;DHT22;16437;41.836;23.480;2022-10-16T19:00:55;17.90;46.30
29479;DHT22;16437;41.836;23.480;2022-10-16T19:06:22;17.80;46.10
29479;DHT22;16437;41.836;23.480;2022-10-16T19:11:49;17.80;46.00
29479;DHT22;16437;41.836;23.480;2022-10-16T19:17:15;17.80;45.90
29479;DHT22;16437;41.836;23.480;2022-10-16T19:22:42;17.80;45.80
29479;DHT22;16437;41.836;23.480;2022-10-16T19:28:24;17.70;45.80
29479;DHT22;16437;41.836;23.480;2022-10-16T19:33:52;17.70;45.80
29479;DHT22;16437;41.836;23.480;2022-10-16T19:39:18;17.70;45.80
29479;DHT22;16437;41.836;23.480;2022-10-16T19:44:45;17.70;45.80
29479;DHT22;16437;41.836;23.480;2022-10-16T19:50:12;17.70;45.80
29479;DHT22;16437;41.836;23.480;2022-10-16T19:55:40;17.60;45.80
29479;DHT22;16437;41.836;23.480;2022-10-16T20:01:06;17.60;45.80
29479;DHT22;16437;41.836;23.480;2022-10-16T20:06:32;17.60;45.70
29479;DHT22;16437;41.836;23.480;2022-10-16T20:11:59;17.60;45.60
29479;DHT22;16437;41.836;23.480;2022-10-16T20:17:26;17.50;45.50
29479;DHT22;16437;41.836;23.480;2022-10-16T20:22:52;17.50;45.30
29479;DHT22;16437;41.836;23.480;2022-10-16T20:28:20;17.50;45.10
29479;DHT22;16437;41.836;23.480;2022-10-16T20:33:47;17.40;44.90
29479;DHT22;16437;41.836;23.480;2022-10-16T20:39:14;17.40;44.80
29479;DHT22;16437;41.836;23.480;2022-10-16T20:44:40;17.40;44.80
29479;DHT22;16437;41.836;23.480;2022-10-16T20:50:07;17.40;44.70
29479;DHT22;16437;41.836;23.480;2022-10-16T20:55:35;17.40;44.70
29479;DHT22;16437;41.836;23.480;2022-10-16T21:01:07;17.30;44.80
29479;DHT22;16437;41.836;23.480;2022-10-16T21:06:36;17.30;44.90
29479;DHT22;16437;41.836;23.480;2022-10-16T21:12:03;17.30;45.00
29479;DHT22;16437;41.836;23.480;2022-10-16T21:17:30;17.30;45.10
29479;DHT22;16437;41.836;23.480;2022-10-16T21:22:57;17.30;45.20
29479;DHT22;16437;41.836;23.480;2022-10-16T21:28:23;17.30;45.40
29479;DHT22;16437;41.836;23.480;2022-10-16T21:33:50;17.30;45.40
29479;DHT22;16437;41.836;23.480;2022-10-16T21:39:18;17.30;45.30
29479;DHT22;16437;41.836;23.480;2022-10-16T21:44:45;17.30;45.20
29479;DHT22;16437;41.836;23.480;2022-10-16T21:50:11;17.20;45.10
29479;DHT22;16437;41.836;23.480;2022-10-16T21:55:38;17.20;44.90
29479;DHT22;16437;41.836;23.480;2022-10-16T22:01:16;17.10;44.60
29479;DHT22;16437;41.836;23.480;2022-10-16T22:06:39;17.10;44.40
29479;DHT22;16437;41.836;23.480;2022-10-16T22:12:06;17.20;44.30
29479;DHT22;16437;41.836;23.480;2022-10-16T22:17:32;17.20;44.30
29479;DHT22;16437;41.836;23.480;2022-10-16T22:22:59;17.20;44.30
29479;DHT22;16437;41.836;23.480;2022-10-16T22:28:25;17.10;44.50
29479;DHT22;16437;41.836;23.480;2022-10-16T22:33:59;17.10;44.70
29479;DHT22;16437;41.836;23.480;2022-10-16T22:39:26;17.10;44.90
29479;DHT22;16437;41.836;23.480;2022-10-16T22:44:53;17.10;45.00
29479;DHT22;16437;41.836;23.480;2022-10-16T22:50:19;17.10;45.20
29479;DHT22;16437;41.836;23.480;2022-10-16T22:55:46;17.10;45.30
29479;DHT22;16437;41.836;23.480;2022-10-16T23:01:18;17.10;45.30
29479;DHT22;16437;41.836;23.480;2022-10-16T23:06:44;17.10;45.40
29479;DHT22;16437;41.836;23.480;2022-10-16T23:12:11;17.10;45.50
29479;DHT22;16437;41.836;23.480;2022-10-16T23:17:37;17.10;45.60
29479;DHT22;16437;41.836;23.480;2022-10-16T23:23:04;17.10;45.70
29479;DHT22;16437;41.836;23.480;2022-10-16T23:28:30;17.10;45.80
29479;DHT22;16437;41.836;23.480;2022-10-16T23:33:58;17.00;45.80
29479;DHT22;16437;41.836;23.480;2022-10-16T23:39:24;17.00;45.80
29479;DHT22;16437;41.836;23.480;2022-10-16T23:44:51;17.00;45.80
29479;DHT22;16437;41.836;23.480;2022-10-16T23:50:18;17.00;45.70
29479;DHT22;16437;41.836;23.480;2022-10-16T23:55:44;17.00;45.60
